createdAt,value
2022-08-02T00:00:55.660Z,11.40
2022-08-02T00:03:24.423Z,11.30
2022-08-02T00:05:53.720Z,11.30
2022-08-02T00:08:21.820Z,11.30
2022-08-02T00:10:48.996Z,11.30
2022-08-02T00:13:15.601Z,11.20
2022-08-02T00:15:42.277Z,11.20
2022-08-02T00:18:09.126Z,11.20
2022-08-02T00:20:35.778Z,11.20
2022-08-02T00:23:02.606Z,11.10
2022-08-02T00:25:29.401Z,11.10
2022-08-02T00:27:56.038Z,11.10
2022-08-02T00:30:22.653Z,11.10
2022-08-02T00:32:49.338Z,11.00
2022-08-02T00:35:15.977Z,11.10
2022-08-02T00:37:42.921Z,11.00
2022-08-02T00:40:10.940Z,11.00
2022-08-02T00:42:38.626Z,10.90
2022-08-02T00:45:05.910Z,10.90
2022-08-02T00:47:32.606Z,10.90
2022-08-02T00:49:59.270Z,10.80
2022-08-02T00:52:26.250Z,10.80
2022-08-02T00:54:52.876Z,10.80
2022-08-02T00:57:19.544Z,10.80
2022-08-02T00:59:46.128Z,10.80
2022-08-02T01:02:12.876Z,10.80
2022-08-02T01:04:39.708Z,10.70
2022-08-02T01:07:12.855Z,10.70
2022-08-02T01:09:44.494Z,10.70
2022-08-02T01:12:12.140Z,10.70
2022-08-02T01:14:42.110Z,10.70
2022-08-02T01:17:32.340Z,10.70
2022-08-02T01:20:33.115Z,10.60
2022-08-02T01:23:31.321Z,10.60
2022-08-02T01:26:06.944Z,10.60
2022-08-02T01:28:48.735Z,10.60
2022-08-02T01:31:38.683Z,10.60
2022-08-02T01:34:32.431Z,10.70
2022-08-02T01:37:03.650Z,10.70
2022-08-02T01:39:34.094Z,10.70
2022-08-02T01:42:02.945Z,10.80
2022-08-02T01:44:34.544Z,10.80
2022-08-02T01:47:06.525Z,10.80
2022-08-02T01:49:35.919Z,10.90
2022-08-02T01:52:22.528Z,10.90
2022-08-02T01:55:02.970Z,10.90
2022-08-02T01:57:45.625Z,10.90
2022-08-02T02:00:13.069Z,10.90
2022-08-02T02:02:43.830Z,10.90
2022-08-02T02:05:14.873Z,10.90
2022-08-02T02:07:43.581Z,10.90
2022-08-02T02:10:14.521Z,10.90
2022-08-02T02:12:44.164Z,10.90
2022-08-02T02:15:12.765Z,10.90
2022-08-02T02:17:50.563Z,10.90
2022-08-02T02:20:30.822Z,10.90
2022-08-02T02:22:58.886Z,10.90
2022-08-02T02:25:36.111Z,10.90
2022-08-02T02:28:24.838Z,10.90
2022-08-02T02:31:00.329Z,10.90
2022-08-02T02:33:30.587Z,10.80
2022-08-02T02:35:59.110Z,10.80
2022-08-02T02:38:28.411Z,10.80
2022-08-02T02:40:56.958Z,10.80
2022-08-02T02:43:27.973Z,10.80
2022-08-02T02:45:56.325Z,10.70
2022-08-02T02:48:23.460Z,10.70
2022-08-02T02:50:51.273Z,10.70
2022-08-02T02:53:19.546Z,10.70
2022-08-02T02:56:01.956Z,10.60
2022-08-02T02:58:31.093Z,10.60
2022-08-02T03:01:16.584Z,10.60
2022-08-02T03:03:45.648Z,10.50
2022-08-02T03:06:15.307Z,10.50
2022-08-02T03:08:43.078Z,10.50
2022-08-02T03:11:10.994Z,10.50
2022-08-02T03:13:38.865Z,10.40
2022-08-02T03:16:05.862Z,10.40
2022-08-02T03:18:37.986Z,10.40
2022-08-02T03:21:08.370Z,10.40
2022-08-02T03:23:35.533Z,10.40
2022-08-02T03:26:02.710Z,10.50
2022-08-02T03:28:29.754Z,10.50
2022-08-02T03:30:56.867Z,10.50
2022-08-02T03:33:25.547Z,10.60
2022-08-02T03:35:55.077Z,10.60
2022-08-02T03:38:24.057Z,10.70
2022-08-02T03:40:56.111Z,10.70
2022-08-02T03:43:23.749Z,10.70
2022-08-02T03:45:56.712Z,10.80
2022-08-02T03:48:31.806Z,10.70
2022-08-02T03:51:01.798Z,10.80
2022-08-02T03:53:28.893Z,10.80
2022-08-02T03:55:56.080Z,10.80
2022-08-02T03:58:24.189Z,10.90
2022-08-02T04:00:54.638Z,10.90
2022-08-02T04:03:21.646Z,10.90
2022-08-02T04:06:03.896Z,10.90
2022-08-02T04:08:37.644Z,10.90
2022-08-02T04:11:24.427Z,11.00
2022-08-02T04:13:51.788Z,10.90
2022-08-02T04:16:23.646Z,11.00
2022-08-02T04:18:57.908Z,11.00
2022-08-02T04:21:27.212Z,11.00
2022-08-02T04:24:18.645Z,11.10
2022-08-02T04:26:48.808Z,11.20
2022-08-02T04:29:18.357Z,11.10
2022-08-02T04:31:45.744Z,11.20
2022-08-02T04:34:15.433Z,11.20
2022-08-02T04:36:42.970Z,11.20
2022-08-02T04:39:09.763Z,11.30
2022-08-02T04:41:43.952Z,11.30
2022-08-02T04:44:11.349Z,11.30
2022-08-02T04:46:38.628Z,11.30
2022-08-02T04:49:05.733Z,11.30
2022-08-02T04:51:40.381Z,11.30
2022-08-02T04:54:09.972Z,11.40
2022-08-02T04:56:37.976Z,11.40
2022-08-02T04:59:05.455Z,11.40
2022-08-02T05:01:32.385Z,11.50
2022-08-02T05:03:59.363Z,11.50
2022-08-02T05:06:25.983Z,11.60
2022-08-02T05:08:53.602Z,11.60
2022-08-02T05:11:34.662Z,11.70
2022-08-02T05:14:04.926Z,11.80
2022-08-02T05:16:32.288Z,11.90
2022-08-02T05:19:02.704Z,12.00
2022-08-02T05:21:30.218Z,12.10
2022-08-02T05:23:56.875Z,12.10
2022-08-02T05:26:23.517Z,12.20
2022-08-02T05:28:50.133Z,12.30
2022-08-02T05:31:16.726Z,12.40
2022-08-02T05:33:43.304Z,12.50
2022-08-02T05:36:10.003Z,12.60
2022-08-02T05:38:37.918Z,12.70
2022-08-02T05:41:05.762Z,12.80
2022-08-02T05:43:32.989Z,12.90
2022-08-02T05:45:59.737Z,12.90
2022-08-02T05:48:31.233Z,13.00
2022-08-02T05:51:05.762Z,13.20
2022-08-02T05:53:49.667Z,13.30
2022-08-02T05:56:33.290Z,13.50
2022-08-02T05:59:04.178Z,13.60
2022-08-02T06:01:37.790Z,13.80
2022-08-02T06:04:09.534Z,14.00
2022-08-02T06:06:37.679Z,14.30
2022-08-02T06:09:10.166Z,14.80
2022-08-02T06:11:39.902Z,15.50
2022-08-02T06:14:07.686Z,16.00
2022-08-02T06:16:36.862Z,16.30
2022-08-02T06:19:09.606Z,16.50
2022-08-02T06:22:31.968Z,16.60
2022-08-02T06:24:26.328Z,16.80
2022-08-02T06:26:55.219Z,17.30
2022-08-02T06:29:23.613Z,17.80
2022-08-02T06:31:53.148Z,18.40
2022-08-02T06:34:19.750Z,19.10
2022-08-02T06:36:55.333Z,19.90
2022-08-02T06:39:34.430Z,20.50
2022-08-02T06:42:06.488Z,21.20
2022-08-02T06:44:53.137Z,22.00
2022-08-02T06:47:20.981Z,22.80
2022-08-02T06:49:52.303Z,23.70
2022-08-02T06:52:34.044Z,24.30
2022-08-02T06:55:02.602Z,24.80
2022-08-02T06:57:30.225Z,25.20
2022-08-02T06:59:58.261Z,25.80
2022-08-02T07:02:24.933Z,26.50
2022-08-02T07:04:51.597Z,27.40
2022-08-02T07:07:18.468Z,28.30
2022-08-02T07:09:56.214Z,29.50
2022-08-02T07:12:28.690Z,30.70
2022-08-02T07:14:55.291Z,31.30
2022-08-02T07:17:21.986Z,31.60
2022-08-02T07:19:48.615Z,31.90
2022-08-02T07:22:15.634Z,32.20
2022-08-02T07:24:42.569Z,32.60
2022-08-02T07:27:11.638Z,32.70
2022-08-02T07:29:45.057Z,33.10
2022-08-02T07:32:13.193Z,33.30
2022-08-02T07:34:40.146Z,33.50
2022-08-02T07:37:10.509Z,33.40
2022-08-02T07:39:51.353Z,33.70
2022-08-02T07:42:18.864Z,33.80
2022-08-02T07:44:49.146Z,33.90
2022-08-02T07:47:16.464Z,33.60
2022-08-02T07:49:43.045Z,33.50
2022-08-02T07:52:10.516Z,33.70
2022-08-02T07:54:37.372Z,33.80
2022-08-02T07:57:04.315Z,33.70
2022-08-02T07:59:31.203Z,33.30
2022-08-02T08:01:57.911Z,33.00
2022-08-02T08:04:24.696Z,33.40
2022-08-02T08:06:52.667Z,33.80
2022-08-02T08:09:19.922Z,33.90
2022-08-02T08:11:46.598Z,33.80
2022-08-02T08:14:16.906Z,33.70
2022-08-02T08:16:44.117Z,33.30
2022-08-02T08:19:10.777Z,32.90
2022-08-02T08:21:37.374Z,32.90
2022-08-02T08:24:04.681Z,33.30
2022-08-02T08:26:31.422Z,33.30
2022-08-02T08:28:58.034Z,33.20
2022-08-02T08:31:24.632Z,32.80
2022-08-02T08:33:51.422Z,32.60
2022-08-02T08:36:18.114Z,33.20
2022-08-02T08:38:45.093Z,33.70
2022-08-02T08:41:11.733Z,34.20
2022-08-02T08:43:38.419Z,34.80
2022-08-02T08:46:06.471Z,35.50
2022-08-02T08:48:37.378Z,35.80
2022-08-02T08:51:23.216Z,35.50
2022-08-02T08:53:54.058Z,34.50
2022-08-02T08:56:20.882Z,33.70
2022-08-02T08:58:47.652Z,33.70
2022-08-02T09:01:16.618Z,33.50
2022-08-02T09:03:44.395Z,33.20
2022-08-02T09:06:11.025Z,33.00
2022-08-02T09:08:37.738Z,33.30
2022-08-02T09:11:14.202Z,33.90
2022-08-02T09:13:58.829Z,34.30
2022-08-02T09:16:37.401Z,34.60
2022-08-02T09:19:25.293Z,34.50
2022-08-02T09:22:01.143Z,34.10
2022-08-02T09:24:27.837Z,33.80
2022-08-02T09:26:58.722Z,34.20
2022-08-02T09:29:26.170Z,34.60
2022-08-02T09:32:02.944Z,34.30
2022-08-02T09:34:49.950Z,34.40
2022-08-02T09:37:24.766Z,34.20
2022-08-02T09:39:51.516Z,33.90
2022-08-02T09:42:25.105Z,33.50
2022-08-02T09:45:00.638Z,33.10
2022-08-02T09:47:28.985Z,32.70
2022-08-02T09:49:58.382Z,32.50
2022-08-02T09:52:43.225Z,32.30
2022-08-02T09:55:11.733Z,32.10
2022-08-02T09:57:38.479Z,31.90
2022-08-02T10:00:15.036Z,31.50
2022-08-02T10:03:07.710Z,31.10
2022-08-02T10:05:56.192Z,30.80
2022-08-02T10:08:32.887Z,30.60
2022-08-02T10:11:03.482Z,30.60
2022-08-02T10:13:35.730Z,30.60
2022-08-02T10:16:03.264Z,30.60
2022-08-02T10:18:39.855Z,30.60
2022-08-02T10:21:30.671Z,30.80
2022-08-02T10:24:05.366Z,31.00
2022-08-02T10:26:33.021Z,31.40
2022-08-02T10:28:59.682Z,31.30
2022-08-02T10:31:33.433Z,31.10
2022-08-02T10:34:03.023Z,31.20
2022-08-02T10:36:33.655Z,31.30
2022-08-02T10:39:01.862Z,31.10
2022-08-02T10:41:46.913Z,30.90
2022-08-02T10:44:25.022Z,30.60
2022-08-02T10:46:52.552Z,30.60
2022-08-02T10:49:39.280Z,30.90
2022-08-02T10:52:08.308Z,31.10
2022-08-02T10:54:38.479Z,30.90
2022-08-02T10:57:16.139Z,30.40
2022-08-02T10:59:43.709Z,30.00
2022-08-02T11:02:11.281Z,29.80
2022-08-02T11:04:43.903Z,29.50
2022-08-02T11:07:19.273Z,29.20
2022-08-02T11:09:48.486Z,29.20
2022-08-02T11:12:20.363Z,29.90
2022-08-02T11:15:00.034Z,30.40
2022-08-02T11:17:28.900Z,30.90
2022-08-02T11:20:10.826Z,31.70
2022-08-02T11:22:38.807Z,32.80
2022-08-02T11:25:23.780Z,33.10
2022-08-02T11:27:53.340Z,33.10
2022-08-02T11:30:26.682Z,33.20
2022-08-02T11:32:58.470Z,33.10
2022-08-02T11:35:32.861Z,32.80
2022-08-02T11:38:19.185Z,32.70
2022-08-02T11:40:47.667Z,32.40
2022-08-02T11:43:23.358Z,32.10
2022-08-02T11:45:53.919Z,31.80
2022-08-02T11:48:50.143Z,31.60
2022-08-02T11:51:17.977Z,31.50
2022-08-02T11:53:53.390Z,31.50
2022-08-02T11:56:28.335Z,31.40
2022-08-02T11:59:21.837Z,31.20
2022-08-02T12:01:48.943Z,31.20
2022-08-02T12:04:22.676Z,31.00
2022-08-02T12:06:56.137Z,30.80
2022-08-02T12:09:23.555Z,30.60
2022-08-02T12:11:51.005Z,30.50
2022-08-02T12:14:18.204Z,30.60
2022-08-02T12:17:03.912Z,30.50
2022-08-02T12:19:30.602Z,30.50
2022-08-02T12:22:18.415Z,30.60
2022-08-02T12:24:50.871Z,30.80
2022-08-02T12:27:43.430Z,30.60
2022-08-02T12:30:12.194Z,30.20
2022-08-02T12:32:40.129Z,30.00
2022-08-02T12:35:07.095Z,30.00
2022-08-02T12:37:34.614Z,30.10
2022-08-02T12:40:25.651Z,30.20
2022-08-02T12:42:56.333Z,30.10
2022-08-02T12:45:23.407Z,30.20
2022-08-02T12:47:53.908Z,30.30
2022-08-02T12:50:29.938Z,30.10
2022-08-02T12:53:14.941Z,30.20
2022-08-02T12:56:00.678Z,30.20
2022-08-02T12:58:29.569Z,30.30
2022-08-02T13:01:01.246Z,30.40
2022-08-02T13:04:11.466Z,30.50
2022-08-02T13:06:42.275Z,30.40
2022-08-02T13:09:02.425Z,30.30
2022-08-02T13:11:29.436Z,30.10
2022-08-02T13:13:56.145Z,30.00
2022-08-02T13:16:30.729Z,30.00
2022-08-02T13:18:58.378Z,29.90
2022-08-02T13:21:41.306Z,29.90
2022-08-02T13:24:32.766Z,30.10
2022-08-02T13:27:05.206Z,29.90
2022-08-02T13:29:36.361Z,29.50
2022-08-02T13:32:03.294Z,29.60
2022-08-02T13:34:30.003Z,29.80
2022-08-02T13:36:56.594Z,30.00
2022-08-02T13:39:23.206Z,30.10
2022-08-02T13:41:49.938Z,30.20
2022-08-02T13:44:16.582Z,30.20
2022-08-02T13:46:45.301Z,30.20
2022-08-02T13:49:18.943Z,30.10
2022-08-02T13:51:49.884Z,30.00
2022-08-02T13:54:17.104Z,29.80
2022-08-02T13:56:43.992Z,29.60
2022-08-02T13:59:21.999Z,29.40
2022-08-02T14:01:58.647Z,29.10
2022-08-02T14:04:25.896Z,29.00
2022-08-02T14:06:52.915Z,29.20
2022-08-02T14:09:19.791Z,29.20
2022-08-02T14:11:47.242Z,29.20
2022-08-02T14:14:16.457Z,29.40
2022-08-02T14:16:47.079Z,29.50
2022-08-02T14:19:16.609Z,29.60
2022-08-02T14:21:48.621Z,29.70
2022-08-02T14:24:20.601Z,29.60
2022-08-02T14:26:49.766Z,29.40
2022-08-02T14:29:17.035Z,29.20
2022-08-02T14:31:44.975Z,29.00
2022-08-02T14:34:12.720Z,28.80
2022-08-02T14:36:39.369Z,28.70
2022-08-02T14:39:06.252Z,28.50
2022-08-02T14:41:58.311Z,28.40
2022-08-02T14:44:23.254Z,28.40
2022-08-02T14:46:51.516Z,28.50
2022-08-02T14:49:24.795Z,28.60
2022-08-02T14:51:57.133Z,28.80
2022-08-02T14:54:31.010Z,28.90
2022-08-02T14:57:00.036Z,29.20
2022-08-02T14:59:27.269Z,29.30
2022-08-02T15:01:54.141Z,29.30
2022-08-02T15:04:20.855Z,29.50
2022-08-02T15:06:47.530Z,29.70
2022-08-02T15:09:14.294Z,29.80
2022-08-02T15:11:47.553Z,29.70
2022-08-02T15:14:16.165Z,29.60
2022-08-02T15:16:56.457Z,29.40
2022-08-02T15:19:23.596Z,29.20
2022-08-02T15:21:54.581Z,29.00
2022-08-02T15:24:23.874Z,28.90
2022-08-02T15:26:50.781Z,28.80
2022-08-02T15:29:18.317Z,28.80
2022-08-02T15:31:45.093Z,28.80
2022-08-02T15:34:11.764Z,28.70
2022-08-02T15:36:38.412Z,28.60
2022-08-02T15:39:05.315Z,28.50
2022-08-02T15:41:32.367Z,28.40
2022-08-02T15:44:01.583Z,28.30
2022-08-02T15:46:32.176Z,28.20
2022-08-02T15:48:59.923Z,28.10
2022-08-02T15:51:27.066Z,27.90
2022-08-02T15:53:53.791Z,27.80
2022-08-02T15:56:23.873Z,27.60
2022-08-02T15:58:51.815Z,27.50
2022-08-02T16:01:23.847Z,27.40
2022-08-02T16:03:50.698Z,27.30
2022-08-02T16:06:17.463Z,27.20
2022-08-02T16:08:53.439Z,27.20
2022-08-02T16:11:22.288Z,27.20
2022-08-02T16:13:55.305Z,27.20
2022-08-02T16:16:23.917Z,27.20
2022-08-02T16:18:50.859Z,27.30
2022-08-02T16:21:17.583Z,27.30
2022-08-02T16:23:58.719Z,27.40
2022-08-02T16:26:34.065Z,27.40
2022-08-02T16:29:02.572Z,27.40
2022-08-02T16:31:30.111Z,27.40
2022-08-02T16:33:57.395Z,27.40
2022-08-02T16:36:25.345Z,27.30
2022-08-02T16:38:53.609Z,27.30
2022-08-02T16:41:20.827Z,27.30
2022-08-02T16:43:47.654Z,27.20
2022-08-02T16:46:14.697Z,27.10
2022-08-02T16:48:42.113Z,27.10
2022-08-02T16:51:18.689Z,27.00
2022-08-02T16:53:59.247Z,27.00
2022-08-02T16:56:28.135Z,26.90
2022-08-02T16:58:55.058Z,26.90
2022-08-02T17:01:27.068Z,26.80
2022-08-02T17:03:56.468Z,26.80
2022-08-02T17:06:26.389Z,26.80
2022-08-02T17:08:56.385Z,26.90
2022-08-02T17:11:23.935Z,26.90
2022-08-02T17:13:51.469Z,27.00
2022-08-02T17:16:20.906Z,27.10
2022-08-02T17:18:53.758Z,27.20
2022-08-02T17:21:20.406Z,27.20
2022-08-02T17:24:04.854Z,27.30
2022-08-02T17:26:34.124Z,27.20
2022-08-02T17:29:16.078Z,27.20
2022-08-02T17:32:02.396Z,27.10
2022-08-02T17:34:31.399Z,27.00
2022-08-02T17:36:57.999Z,26.80
2022-08-02T17:39:24.622Z,26.80
2022-08-02T17:42:00.914Z,26.70
2022-08-02T17:44:37.781Z,26.60
2022-08-02T17:47:11.743Z,26.40
2022-08-02T17:49:43.044Z,26.30
2022-08-02T17:52:51.738Z,26.20
2022-08-02T17:55:03.405Z,26.10
2022-08-02T17:57:30.712Z,26.00
2022-08-02T18:00:17.970Z,25.90
2022-08-02T18:02:52.618Z,25.90
2022-08-02T18:05:21.754Z,25.80
2022-08-02T18:07:49.512Z,25.80
2022-08-02T18:10:18.623Z,25.80
2022-08-02T18:12:45.909Z,25.80
2022-08-02T18:15:14.736Z,25.90
2022-08-02T18:17:42.024Z,25.80
2022-08-02T18:20:28.357Z,25.80
2022-08-02T18:22:55.700Z,25.70
2022-08-02T18:25:37.415Z,25.60
2022-08-02T18:28:10.743Z,25.60
2022-08-02T18:30:37.385Z,25.50
2022-08-02T18:33:57.053Z,25.40
2022-08-02T18:35:52.476Z,25.30
2022-08-02T18:38:22.503Z,25.30
2022-08-02T18:40:51.109Z,25.20
2022-08-02T18:43:18.726Z,25.20
2022-08-02T18:46:06.787Z,25.10
2022-08-02T18:48:37.358Z,25.00
2022-08-02T18:51:06.386Z,24.90
2022-08-02T18:53:41.911Z,24.70
2022-08-02T18:56:19.883Z,24.70
2022-08-02T18:58:55.797Z,24.50
2022-08-02T19:01:32.158Z,24.30
2022-08-02T19:04:01.432Z,24.20
2022-08-02T19:06:29.104Z,24.10
2022-08-02T19:09:05.415Z,23.90
2022-08-02T19:11:37.227Z,23.80
2022-08-02T19:14:04.166Z,23.60
2022-08-02T19:16:36.887Z,23.50
2022-08-02T19:19:05.773Z,23.30
2022-08-02T19:22:18.904Z,23.20
2022-08-02T19:24:19.365Z,23.00
2022-08-02T19:26:51.641Z,22.90
2022-08-02T19:29:43.454Z,22.80
2022-08-02T19:32:08.629Z,22.70
2022-08-02T19:34:55.737Z,22.60
2022-08-02T19:37:22.387Z,22.50
2022-08-02T19:39:49.014Z,22.40
2022-08-02T19:42:16.885Z,22.30
2022-08-02T19:44:45.675Z,22.20
2022-08-02T19:47:19.364Z,22.10
2022-08-02T19:49:48.832Z,22.10
2022-08-02T19:52:21.652Z,22.10
2022-08-02T19:57:39.001Z,22.10
2022-08-02T20:00:11.386Z,22.10
2022-08-02T20:02:38.383Z,22.10
2022-08-02T20:05:16.442Z,22.10
2022-08-02T20:07:56.152Z,22.10
2022-08-02T20:10:24.712Z,22.10
2022-08-02T20:12:53.503Z,22.00
2022-08-02T20:15:20.453Z,22.00
2022-08-02T20:17:49.170Z,22.00
2022-08-02T20:20:17.333Z,22.00
2022-08-02T20:25:54.221Z,22.00
2022-08-02T20:28:21.954Z,21.90
2022-08-02T20:30:48.833Z,21.90
2022-08-02T20:33:20.989Z,21.90
2022-08-02T20:35:48.418Z,21.90
2022-08-02T20:38:16.322Z,21.90
2022-08-02T20:40:43.381Z,21.90
2022-08-02T20:43:10.544Z,21.90
2022-08-02T20:45:37.197Z,21.90
2022-08-02T20:48:04.074Z,21.90
2022-08-02T20:50:49.250Z,22.00
2022-08-02T20:53:23.594Z,22.00
2022-08-02T20:55:54.022Z,22.00
2022-08-02T21:01:08.421Z,21.90
2022-08-02T21:03:39.070Z,21.90
2022-08-02T21:06:11.261Z,21.90
2022-08-02T21:08:41.963Z,21.80
2022-08-02T21:11:14.029Z,21.70
2022-08-02T21:13:46.442Z,21.70
2022-08-02T21:16:18.337Z,21.60
2022-08-02T21:18:49.019Z,21.60
2022-08-02T21:21:16.622Z,21.50
2022-08-02T21:23:48.659Z,21.40
2022-08-02T21:26:27.950Z,21.40
2022-08-02T21:28:55.585Z,21.30
2022-08-02T21:31:22.295Z,21.20
2022-08-02T21:33:58.632Z,21.20
2022-08-02T21:36:33.134Z,21.10
2022-08-02T21:39:05.948Z,21.00
2022-08-02T21:41:38.544Z,21.00
2022-08-02T21:44:08.495Z,21.00
2022-08-02T21:46:35.126Z,20.90
2022-08-02T21:49:02.183Z,20.90
2022-08-02T21:51:29.059Z,20.80
2022-08-02T21:54:18.574Z,20.80
2022-08-02T21:56:48.461Z,20.70
2022-08-02T21:59:17.298Z,20.50
2022-08-02T22:01:52.924Z,20.50
2022-08-02T22:04:20.871Z,20.50
2022-08-02T22:06:49.064Z,20.60
2022-08-02T22:09:17.645Z,20.50
2022-08-02T22:12:05.177Z,20.50
2022-08-02T22:14:37.301Z,20.40
2022-08-02T22:17:08.631Z,20.50
2022-08-02T22:19:36.326Z,20.50
2022-08-02T22:22:03.029Z,20.40
2022-08-02T22:27:16.592Z,20.30
2022-08-02T22:29:46.537Z,20.20
2022-08-02T22:34:59.920Z,20.00
2022-08-02T22:38:16.536Z,20.00
2022-08-02T22:40:13.942Z,20.00
2022-08-02T22:42:40.538Z,20.00
2022-08-02T22:45:09.484Z,20.10
2022-08-02T22:47:38.821Z,20.20
2022-08-02T22:50:17.760Z,20.20
2022-08-02T22:52:46.909Z,20.30
2022-08-02T22:55:17.509Z,20.40
2022-08-02T22:57:56.656Z,20.50
2022-08-02T22:58:53.721Z,22.10
2022-08-02T22:59:05.754Z,22.00
2022-08-02T22:59:05.857Z,22.00
2022-08-02T22:59:12.093Z,20.10
2022-08-02T22:59:12.690Z,20.30
2022-08-02T23:00:25.368Z,20.40
2022-08-02T23:02:52.398Z,20.50
2022-08-02T23:05:20.772Z,20.50
2022-08-02T23:07:47.448Z,20.50
2022-08-02T23:10:14.276Z,20.50
2022-08-02T23:12:40.914Z,20.50
2022-08-02T23:15:08.204Z,20.50
2022-08-02T23:17:53.253Z,20.50
2022-08-02T23:20:19.867Z,20.50
2022-08-02T23:22:46.504Z,20.50
2022-08-02T23:25:14.476Z,20.50
2022-08-02T23:27:50.675Z,20.50
2022-08-02T23:30:18.321Z,20.40
2022-08-02T23:32:46.904Z,20.40
2022-08-02T23:35:17.242Z,20.40
2022-08-02T23:37:59.916Z,20.50
2022-08-02T23:40:38.829Z,20.50
2022-08-02T23:43:14.010Z,20.40
2022-08-02T23:45:42.779Z,20.40
2022-08-02T23:48:09.403Z,20.30
2022-08-02T23:50:36.013Z,20.30
2022-08-02T23:53:02.604Z,20.30
2022-08-02T23:55:29.329Z,20.20
2022-08-02T23:57:55.897Z,20.20
